createdAt,value
2018-11-02T00:03:02.157Z,8.09
2018-11-02T00:06:05.762Z,8.05
2018-11-02T00:09:09.194Z,7.97
2018-11-02T00:12:12.779Z,7.97
2018-11-02T00:15:16.217Z,7.98
2018-11-02T00:18:19.891Z,7.98
2018-11-02T00:21:23.331Z,7.91
2018-11-02T00:24:27.438Z,7.91
2018-11-02T00:27:30.931Z,7.91
2018-11-02T00:30:34.477Z,7.87
2018-11-02T00:33:37.991Z,7.83
2018-11-02T00:36:41.599Z,7.74
2018-11-02T00:39:45.161Z,7.69
2018-11-02T00:42:48.713Z,7.62
2018-11-02T00:45:52.137Z,7.54
2018-11-02T00:48:55.960Z,7.55
2018-11-02T00:51:59.356Z,7.60
2018-11-02T00:55:02.838Z,7.56
2018-11-02T00:58:07.542Z,7.60
2018-11-02T01:01:11.021Z,7.63
2018-11-02T01:04:14.563Z,7.66
2018-11-02T01:07:18.052Z,7.67
2018-11-02T01:10:21.560Z,7.66
2018-11-02T01:13:25.001Z,7.72
2018-11-02T01:16:28.481Z,7.71
2018-11-02T01:19:33.875Z,7.72
2018-11-02T01:22:37.421Z,7.74
2018-11-02T01:25:40.879Z,7.61
2018-11-02T01:28:44.381Z,7.59
2018-11-02T01:31:47.951Z,7.61
2018-11-02T01:34:51.446Z,7.65
2018-11-02T01:37:54.946Z,7.60
2018-11-02T01:40:58.594Z,7.53
2018-11-02T01:44:02.085Z,7.42
2018-11-02T01:47:05.514Z,7.28
2018-11-02T01:50:08.990Z,7.21
2018-11-02T01:53:12.648Z,7.23
2018-11-02T01:56:16.207Z,7.30
2018-11-02T01:59:19.692Z,7.31
2018-11-02T02:02:23.079Z,7.35
2018-11-02T02:05:26.489Z,7.39
2018-11-02T02:08:29.903Z,7.29
2018-11-02T02:11:33.303Z,7.28
2018-11-02T02:14:36.872Z,7.35
2018-11-02T02:17:40.306Z,7.35
2018-11-02T02:20:43.758Z,7.36
2018-11-02T02:23:47.212Z,7.37
2018-11-02T02:26:50.677Z,7.41
2018-11-02T02:29:53.984Z,7.48
2018-11-02T02:32:57.387Z,7.54
2018-11-02T02:36:00.889Z,7.55
2018-11-02T02:39:05.216Z,7.56
2018-11-02T02:42:08.719Z,7.47
2018-11-02T02:45:12.854Z,7.47
2018-11-02T02:48:16.239Z,7.45
2018-11-02T02:51:19.863Z,7.27
2018-11-02T02:54:23.229Z,7.14
2018-11-02T02:57:26.901Z,7.18
2018-11-02T03:00:31.280Z,7.22
2018-11-02T03:03:34.728Z,7.23
2018-11-02T03:06:38.212Z,7.22
2018-11-02T03:09:41.690Z,7.27
2018-11-02T03:12:45.147Z,7.31
2018-11-02T03:15:48.585Z,7.34
2018-11-02T03:18:52.265Z,7.27
2018-11-02T03:21:55.569Z,7.27
2018-11-02T03:24:59.085Z,7.27
2018-11-02T03:28:02.613Z,7.16
2018-11-02T03:31:06.282Z,7.17
2018-11-02T03:34:09.691Z,7.14
2018-11-02T03:37:13.205Z,7.14
2018-11-02T03:40:16.764Z,7.21
2018-11-02T03:43:20.418Z,7.29
2018-11-02T03:46:23.904Z,7.34
2018-11-02T03:49:27.425Z,7.42
2018-11-02T03:52:30.974Z,7.41
2018-11-02T03:55:34.552Z,7.41
2018-11-02T03:58:38.090Z,7.41
2018-11-02T04:01:41.749Z,7.43
2018-11-02T04:04:45.415Z,7.43
2018-11-02T04:07:48.997Z,7.35
2018-11-02T04:10:53.500Z,7.39
2018-11-02T04:13:57.027Z,7.46
2018-11-02T04:17:00.577Z,7.55
2018-11-02T04:20:04.861Z,7.63
2018-11-02T04:23:08.402Z,7.69
2018-11-02T04:26:11.947Z,7.68
2018-11-02T04:29:16.153Z,7.69
2018-11-02T04:32:19.834Z,7.72
2018-11-02T04:35:23.356Z,7.78
2018-11-02T04:38:26.832Z,7.77
2018-11-02T04:41:32.392Z,7.72
2018-11-02T04:44:36.053Z,7.71
2018-11-02T04:47:39.657Z,7.67
2018-11-02T04:50:43.143Z,7.69
2018-11-02T04:53:47.716Z,7.71
2018-11-02T04:56:51.832Z,7.77
2018-11-02T04:59:55.408Z,7.80
2018-11-02T05:02:58.955Z,7.83
2018-11-02T05:06:02.530Z,7.83
2018-11-02T05:09:07.883Z,7.83
2018-11-02T05:12:11.475Z,7.85
2018-11-02T05:15:15.037Z,7.80
2018-11-02T05:18:18.607Z,7.80
2018-11-02T05:21:22.203Z,7.81
2018-11-02T05:24:25.796Z,7.77
2018-11-02T05:27:29.493Z,7.69
2018-11-02T05:30:32.953Z,7.67
2018-11-02T05:33:36.579Z,7.54
2018-11-02T05:36:40.121Z,7.46
2018-11-02T05:39:44.029Z,7.44
2018-11-02T05:42:47.562Z,7.43
2018-11-02T05:45:51.132Z,7.44
2018-11-02T05:48:54.757Z,7.43
2018-11-02T05:51:58.350Z,7.42
2018-11-02T05:55:01.873Z,7.43
2018-11-02T05:58:05.638Z,7.33
2018-11-02T06:01:09.123Z,7.28
2018-11-02T06:04:12.662Z,7.21
2018-11-02T06:07:16.215Z,7.15
2018-11-02T06:10:19.717Z,7.22
2018-11-02T06:13:23.337Z,7.30
2018-11-02T06:16:26.912Z,7.35
2018-11-02T06:19:30.458Z,7.43
2018-11-02T06:22:33.979Z,7.45
2018-11-02T06:25:37.505Z,7.47
2018-11-02T06:28:41.077Z,7.47
2018-11-02T06:31:44.601Z,7.22
2018-11-02T06:34:49.357Z,7.14
2018-11-02T06:37:52.947Z,7.20
2018-11-02T06:40:56.687Z,7.15
2018-11-02T06:44:00.362Z,7.00
2018-11-02T06:47:03.976Z,7.02
2018-11-02T06:50:07.898Z,7.12
2018-11-02T06:53:11.443Z,7.19
2018-11-02T06:56:15.005Z,7.25
2018-11-02T06:59:18.646Z,7.28
2018-11-02T07:02:22.041Z,7.18
2018-11-02T07:05:25.542Z,7.13
2018-11-02T07:08:29.470Z,7.14
2018-11-02T07:11:34.015Z,7.22
2018-11-02T07:14:37.501Z,7.24
2018-11-02T07:17:41.008Z,7.22
2018-11-02T07:20:44.545Z,7.32
2018-11-02T07:23:48.055Z,7.32
2018-11-02T07:26:51.656Z,7.44
2018-11-02T07:29:55.398Z,7.58
2018-11-02T07:32:59.029Z,7.69
2018-11-02T07:36:02.555Z,7.81
2018-11-02T07:39:09.281Z,7.84
2018-11-02T07:42:12.729Z,7.89
2018-11-02T07:45:16.253Z,8.04
2018-11-02T07:48:19.867Z,8.12
2018-11-02T07:51:24.259Z,8.25
2018-11-02T07:54:27.954Z,8.38
2018-11-02T07:57:31.643Z,8.50
2018-11-02T08:00:35.207Z,8.61
2018-11-02T08:03:39.085Z,8.73
2018-11-02T08:06:42.837Z,8.85
2018-11-02T08:09:46.510Z,9.02
2018-11-02T08:12:50.043Z,9.25
2018-11-02T08:15:53.542Z,9.50
2018-11-02T08:18:57.259Z,9.65
2018-11-02T08:22:00.799Z,9.75
2018-11-02T08:25:05.305Z,9.83
2018-11-02T08:28:09.171Z,9.93
2018-11-02T08:31:12.713Z,10.06
2018-11-02T08:34:16.313Z,10.11
2018-11-02T08:37:19.871Z,10.28
2018-11-02T08:40:23.674Z,10.42
2018-11-02T08:43:27.236Z,10.45
2018-11-02T08:46:30.898Z,10.55
2018-11-02T08:49:34.610Z,10.64
2018-11-02T08:52:38.114Z,10.81
2018-11-02T08:55:41.801Z,10.90
2018-11-02T08:58:46.706Z,11.00
2018-11-02T09:01:49.897Z,10.97
2018-11-02T09:04:53.667Z,11.08
2018-11-02T09:07:57.356Z,11.19
2018-11-02T09:11:00.870Z,11.41
2018-11-02T09:14:04.745Z,11.48
2018-11-02T09:17:08.620Z,11.48
2018-11-02T09:20:12.329Z,11.70
2018-11-02T09:23:16.470Z,11.82
2018-11-02T09:26:20.063Z,11.94
2018-11-02T09:29:23.543Z,12.03
2018-11-02T09:32:27.206Z,12.07
2018-11-02T09:35:30.729Z,12.19
2018-11-02T09:38:34.244Z,12.35
2018-11-02T09:41:37.783Z,12.32
2018-11-02T09:44:42.259Z,12.27
2018-11-02T09:47:45.751Z,12.24
2018-11-02T09:50:49.241Z,12.36
2018-11-02T09:53:52.813Z,12.54
2018-11-02T09:56:56.468Z,12.59
2018-11-02T10:00:00.034Z,12.52
2018-11-02T10:03:03.603Z,12.67
2018-11-02T10:06:07.109Z,12.89
2018-11-02T10:09:12.137Z,13.08
2018-11-02T10:12:15.587Z,13.11
2018-11-02T10:15:19.281Z,13.00
2018-11-02T10:18:22.963Z,12.90
2018-11-02T10:21:26.568Z,12.97
2018-11-02T10:24:30.064Z,13.10
2018-11-02T10:27:33.659Z,12.93
2018-11-02T10:30:37.256Z,12.96
2018-11-02T10:33:41.130Z,13.01
2018-11-02T10:36:44.777Z,12.96
2018-11-02T10:39:48.655Z,13.13
2018-11-02T10:42:58.599Z,12.96
2018-11-02T10:46:02.502Z,12.84
2018-11-02T10:49:06.338Z,12.92
2018-11-02T10:52:09.933Z,12.83
2018-11-02T10:55:13.491Z,13.10
2018-11-02T10:58:17.031Z,13.23
2018-11-02T11:01:26.210Z,13.62
2018-11-02T11:04:29.622Z,13.81
2018-11-02T11:07:33.512Z,13.89
2018-11-02T11:10:37.167Z,13.82
2018-11-02T11:13:41.044Z,13.93
2018-11-02T11:16:46.459Z,14.04
2018-11-02T11:19:50.369Z,14.13
2018-11-02T11:22:53.958Z,14.14
2018-11-02T11:25:57.465Z,14.11
2018-11-02T11:29:01.113Z,14.30
2018-11-02T11:32:05.339Z,14.51
2018-11-02T11:35:10.650Z,14.59
2018-11-02T11:38:14.244Z,14.74
2018-11-02T11:41:17.861Z,14.76
2018-11-02T11:44:21.561Z,14.61
2018-11-02T11:47:25.275Z,14.64
2018-11-02T11:50:28.843Z,14.86
2018-11-02T11:53:33.576Z,15.00
2018-11-02T11:56:37.180Z,15.07
2018-11-02T11:59:40.745Z,14.97
2018-11-02T12:02:46.474Z,15.04
2018-11-02T12:05:50.553Z,15.19
2018-11-02T12:08:54.135Z,15.35
2018-11-02T12:11:57.935Z,15.22
2018-11-02T12:15:01.477Z,15.07
2018-11-02T12:18:05.408Z,15.00
2018-11-02T12:21:09.994Z,14.98
2018-11-02T12:24:13.653Z,15.20
2018-11-02T12:27:19.347Z,15.12
2018-11-02T12:30:22.920Z,15.17
2018-11-02T12:33:26.566Z,14.81
2018-11-02T12:36:30.300Z,14.91
2018-11-02T12:39:33.805Z,15.08
2018-11-02T12:42:38.014Z,15.06
2018-11-02T12:45:41.569Z,15.11
2018-11-02T12:48:45.518Z,15.25
2018-11-02T12:51:48.989Z,15.43
2018-11-02T12:54:52.544Z,15.44
2018-11-02T12:57:56.056Z,15.52
2018-11-02T13:00:59.531Z,15.51
2018-11-02T13:04:03.021Z,15.50
2018-11-02T13:07:06.673Z,15.28
2018-11-02T13:10:11.585Z,15.10
2018-11-02T13:13:15.167Z,15.03
2018-11-02T13:16:18.732Z,14.96
2018-11-02T13:19:22.240Z,14.85
2018-11-02T13:22:25.808Z,14.86
2018-11-02T13:25:29.275Z,14.94
2018-11-02T13:28:32.733Z,15.12
2018-11-02T13:31:36.255Z,15.18
2018-11-02T13:34:39.704Z,15.31
2018-11-02T13:37:43.917Z,15.38
2018-11-02T13:40:47.428Z,15.50
2018-11-02T13:43:51.065Z,15.62
2018-11-02T13:46:54.558Z,15.47
2018-11-02T13:49:58.004Z,15.65
2018-11-02T13:53:01.501Z,15.62
2018-11-02T13:56:05.456Z,15.49
2018-11-02T13:59:08.850Z,15.27
2018-11-02T14:02:12.281Z,15.09
2018-11-02T14:05:16.676Z,15.19
2018-11-02T14:08:20.200Z,15.28
2018-11-02T14:11:23.648Z,15.38
2018-11-02T14:14:27.211Z,15.43
2018-11-02T14:17:30.690Z,15.41
2018-11-02T14:20:34.184Z,15.26
2018-11-02T14:23:37.756Z,15.21
2018-11-02T14:26:41.321Z,15.06
2018-11-02T14:29:44.789Z,14.91
2018-11-02T14:32:48.908Z,14.83
2018-11-02T14:35:52.445Z,14.69
2018-11-02T14:38:55.910Z,14.67
2018-11-02T14:41:59.441Z,14.65
2018-11-02T14:45:02.937Z,14.60
2018-11-02T14:48:06.513Z,14.57
2018-11-02T14:51:09.889Z,14.48
2018-11-02T14:54:13.525Z,14.43
2018-11-02T14:57:17.246Z,14.35
2018-11-02T15:00:20.754Z,14.26
2018-11-02T15:03:24.291Z,14.19
2018-11-02T15:06:27.767Z,14.19
2018-11-02T15:09:31.217Z,14.21
2018-11-02T15:12:34.677Z,14.22
2018-11-02T15:15:38.146Z,14.17
2018-11-02T15:18:41.746Z,14.10
2018-11-02T15:21:45.287Z,14.01
2018-11-02T15:24:49.541Z,13.97
2018-11-02T15:27:53.067Z,13.90
2018-11-02T15:30:56.574Z,13.80
2018-11-02T15:34:00.104Z,13.73
2018-11-02T15:37:03.634Z,13.65
2018-11-02T15:40:08.228Z,13.62
2018-11-02T15:43:11.699Z,13.55
2018-11-02T15:46:15.093Z,13.54
2018-11-02T15:49:18.620Z,13.58
2018-11-02T15:52:22.161Z,13.62
2018-11-02T15:55:25.660Z,13.62
2018-11-02T15:58:29.159Z,13.60
2018-11-02T16:01:32.796Z,13.60
2018-11-02T16:04:36.204Z,13.57
2018-11-02T16:07:39.966Z,13.52
2018-11-02T16:10:43.508Z,13.41
2018-11-02T16:13:46.971Z,13.32
2018-11-02T16:16:50.474Z,13.27
2018-11-02T16:19:53.936Z,13.23
2018-11-02T16:22:57.391Z,13.18
2018-11-02T16:26:00.904Z,13.12
2018-11-02T16:29:04.375Z,13.05
2018-11-02T16:32:07.870Z,13.00
2018-11-02T16:35:12.595Z,12.97
2018-11-02T16:38:16.128Z,13.01
2018-11-02T16:41:19.549Z,13.01
2018-11-02T16:44:23.194Z,13.03
2018-11-02T16:47:26.833Z,13.04
2018-11-02T16:50:30.540Z,13.04
2018-11-02T16:53:33.799Z,13.06
2018-11-02T16:56:38.346Z,12.99
2018-11-02T16:59:42.026Z,12.92
2018-11-02T17:02:46.580Z,12.93
2018-11-02T17:05:50.361Z,12.88
2018-11-02T17:08:53.869Z,12.80
2018-11-02T17:11:57.415Z,12.80
2018-11-02T17:15:01.012Z,12.80
2018-11-02T17:18:05.163Z,12.76
2018-11-02T17:21:08.733Z,12.74
2018-11-02T17:24:12.513Z,12.78
2018-11-02T17:27:16.251Z,12.91
2018-11-02T17:30:20.754Z,13.01
2018-11-02T17:33:24.243Z,13.06
2018-11-02T17:36:27.737Z,13.16
2018-11-02T17:39:31.288Z,13.27
2018-11-02T17:42:34.751Z,13.32
2018-11-02T17:45:38.357Z,13.27
2018-11-02T17:48:41.902Z,13.29
2018-11-02T17:51:45.551Z,13.30
2018-11-02T17:54:49.205Z,13.29
2018-11-02T17:57:53.912Z,13.31
2018-11-02T18:00:57.786Z,13.35
2018-11-02T18:04:01.376Z,13.35
2018-11-02T18:07:05.605Z,13.33
2018-11-02T18:10:11.341Z,13.32
2018-11-02T18:13:14.946Z,13.23
2018-11-02T18:16:18.639Z,13.14
2018-11-02T18:19:22.287Z,12.98
2018-11-02T18:22:25.938Z,12.90
2018-11-02T18:25:29.593Z,12.84
2018-11-02T18:28:33.137Z,12.64
2018-11-02T18:31:36.682Z,12.69
2018-11-02T18:34:40.333Z,12.76
2018-11-02T18:37:43.909Z,12.68
2018-11-02T18:40:47.509Z,12.70
2018-11-02T18:43:51.295Z,12.70
2018-11-02T18:46:54.935Z,12.75
2018-11-02T18:49:58.501Z,12.74
2018-11-02T18:53:03.104Z,12.69
2018-11-02T18:56:06.705Z,12.66
2018-11-02T18:59:10.335Z,12.54
2018-11-02T19:02:13.919Z,12.40
2018-11-02T19:05:18.544Z,12.32
2018-11-02T19:08:22.505Z,12.35
2018-11-02T19:11:26.234Z,12.28
2018-11-02T19:14:29.969Z,12.31
2018-11-02T19:17:33.530Z,12.07
2018-11-02T19:20:37.136Z,11.96
2018-11-02T19:23:40.730Z,11.87
2018-11-02T19:26:44.605Z,11.85
2018-11-02T19:29:48.459Z,11.74
2018-11-02T19:32:53.006Z,11.71
2018-11-02T19:35:56.507Z,11.65
2018-11-02T19:39:00.131Z,11.57
2018-11-02T19:42:03.701Z,11.50
2018-11-02T19:45:08.150Z,11.45
2018-11-02T19:48:11.706Z,11.41
2018-11-02T19:51:15.137Z,11.38
2018-11-02T19:54:18.902Z,11.31
2018-11-02T19:57:22.454Z,11.27
2018-11-02T20:00:25.908Z,11.18
2018-11-02T20:03:29.413Z,11.11
2018-11-02T20:06:32.871Z,11.03
2018-11-02T20:09:36.369Z,10.95
2018-11-02T20:12:39.866Z,10.91
2018-11-02T20:15:46.759Z,10.82
2018-11-02T20:18:50.289Z,10.73
2018-11-02T20:21:53.910Z,10.76
2018-11-02T20:24:57.390Z,10.67
2018-11-02T20:28:00.870Z,10.57
2018-11-02T20:31:04.528Z,10.45
2018-11-02T20:34:08.551Z,10.41
2018-11-02T20:37:12.028Z,10.32
2018-11-02T20:40:17.242Z,10.23
2018-11-02T20:43:20.702Z,10.24
2018-11-02T20:46:24.224Z,10.19
2018-11-02T20:49:28.888Z,10.12
2018-11-02T20:52:32.429Z,10.10
2018-11-02T20:55:35.905Z,10.06
2018-11-02T20:58:39.429Z,10.05
2018-11-02T21:01:42.872Z,10.11
2018-11-02T21:04:46.583Z,10.06
2018-11-02T21:07:50.863Z,10.03
2018-11-02T21:10:54.319Z,10.00
2018-11-02T21:13:58.204Z,9.92
2018-11-02T21:17:01.775Z,9.93
2018-11-02T21:20:06.952Z,9.91
2018-11-02T21:23:10.646Z,9.82
2018-11-02T21:26:14.123Z,9.79
2018-11-02T21:29:17.635Z,9.78
2018-11-02T21:32:22.293Z,9.74
2018-11-02T21:35:25.868Z,9.75
2018-11-02T21:38:29.533Z,9.79
2018-11-02T21:41:32.970Z,9.87
2018-11-02T21:44:36.458Z,9.85
2018-11-02T21:47:40.098Z,9.88
2018-11-02T21:50:43.546Z,9.81
2018-11-02T21:53:47.107Z,9.86
2018-11-02T21:56:50.627Z,9.84
2018-11-02T21:59:54.103Z,9.82
2018-11-02T22:02:57.640Z,9.68
2018-11-02T22:06:01.358Z,9.64
2018-11-02T22:09:06.771Z,9.64
2018-11-02T22:12:10.241Z,9.60
2018-11-02T22:15:13.711Z,9.57
2018-11-02T22:18:17.232Z,9.58
2018-11-02T22:21:20.681Z,9.61
2018-11-02T22:24:24.191Z,9.71
2018-11-02T22:27:27.744Z,9.70
2018-11-02T22:30:31.244Z,9.70
2018-11-02T22:33:34.759Z,9.69
2018-11-02T22:36:40.300Z,9.65
2018-11-02T22:39:43.745Z,9.53
2018-11-02T22:42:47.337Z,9.50
2018-11-02T22:45:50.926Z,9.45
2018-11-02T22:48:54.480Z,9.41
2018-11-02T22:51:58.154Z,9.40
2018-11-02T22:55:01.750Z,9.43
2018-11-02T22:58:05.709Z,9.45
2018-11-02T23:01:14.316Z,9.53
2018-11-02T23:04:17.859Z,9.54
2018-11-02T23:07:21.428Z,9.52
2018-11-02T23:10:24.996Z,9.55
2018-11-02T23:13:28.514Z,9.50
2018-11-02T23:16:32.007Z,9.49
2018-11-02T23:19:35.659Z,9.50
2018-11-02T23:22:39.018Z,9.54
2018-11-02T23:25:42.507Z,9.57
2018-11-02T23:28:46.046Z,9.57
2018-11-02T23:31:49.536Z,9.47
2018-11-02T23:34:53.119Z,9.37
2018-11-02T23:37:56.748Z,9.32
2018-11-02T23:41:00.264Z,9.28
2018-11-02T23:44:03.806Z,9.22
2018-11-02T23:47:07.355Z,9.13
2018-11-02T23:50:10.906Z,9.11
2018-11-02T23:53:15.364Z,9.14
2018-11-02T23:56:18.936Z,9.15
2018-11-02T23:59:22.534Z,9.20
